createdAt,value
2023-05-12T00:00:49.179Z,98937.97
2023-05-12T00:03:18.008Z,98938.22
2023-05-12T00:05:46.807Z,98937.00
2023-05-12T00:08:17.012Z,98937.66
2023-05-12T00:10:45.874Z,98939.63
2023-05-12T00:13:14.745Z,98939.50
2023-05-12T00:15:43.594Z,98944.94
2023-05-12T00:18:12.639Z,98953.28
2023-05-12T00:20:41.480Z,98949.47
2023-05-12T00:23:10.211Z,98949.50
2023-05-12T00:25:40.326Z,98947.47
2023-05-12T00:28:09.061Z,98942.53
2023-05-12T00:30:37.659Z,98936.88
2023-05-12T00:33:07.226Z,98946.34
2023-05-12T00:35:35.961Z,98944.28
2023-05-12T00:38:04.807Z,98943.50
2023-05-12T00:40:33.568Z,98952.16
2023-05-12T00:43:04.280Z,98948.66
2023-05-12T00:45:33.186Z,98940.41
2023-05-12T00:48:02.159Z,98939.31
2023-05-12T00:50:31.070Z,98946.97
2023-05-12T00:53:02.700Z,98951.84
2023-05-12T00:55:38.631Z,98947.28
2023-05-12T00:58:09.926Z,98943.72
2023-05-12T01:00:38.718Z,98951.31
2023-05-12T01:03:07.800Z,98952.38
2023-05-12T01:05:48.875Z,98943.06
2023-05-12T01:08:21.089Z,98945.75
2023-05-12T01:10:50.629Z,98946.22
2023-05-12T01:13:21.873Z,98934.06
2023-05-12T01:15:54.770Z,98937.06
2023-05-12T01:18:26.935Z,98936.81
2023-05-12T01:20:57.944Z,98945.78
2023-05-12T01:23:36.455Z,98943.13
2023-05-12T01:26:09.539Z,98944.31
2023-05-12T01:28:41.262Z,98938.53
2023-05-12T01:31:11.590Z,98939.97
2023-05-12T01:33:41.150Z,98936.47
2023-05-12T01:36:10.354Z,98936.53
2023-05-12T01:38:45.123Z,98936.56
2023-05-12T01:41:15.328Z,98936.59
2023-05-12T01:43:44.582Z,98944.09
2023-05-12T01:46:13.616Z,98942.41
2023-05-12T01:48:44.082Z,98941.28
2023-05-12T01:51:12.906Z,98940.78
2023-05-12T01:53:42.333Z,98951.47
2023-05-12T01:56:11.431Z,98950.91
2023-05-12T01:58:42.100Z,98942.34
2023-05-12T02:01:11.182Z,98952.06
2023-05-12T02:03:40.132Z,98952.06
2023-05-12T02:06:21.815Z,98958.97
2023-05-12T02:08:51.032Z,98949.25
2023-05-12T02:11:19.827Z,98949.47
2023-05-12T02:13:50.059Z,98950.28
2023-05-12T02:16:18.963Z,98950.25
2023-05-12T02:18:48.073Z,98950.78
2023-05-12T02:21:16.983Z,98953.53
2023-05-12T02:23:45.808Z,98951.38
2023-05-12T02:26:14.729Z,98954.38
2023-05-12T02:28:43.513Z,98947.53
2023-05-12T02:31:14.326Z,98948.19
2023-05-12T02:33:43.220Z,98943.34
2023-05-12T02:36:11.960Z,98955.22
2023-05-12T02:38:41.288Z,98946.03
2023-05-12T02:41:10.418Z,98948.19
2023-05-12T02:43:39.309Z,98949.00
2023-05-12T02:46:08.273Z,98949.00
2023-05-12T02:48:38.943Z,98944.97
2023-05-12T02:51:10.645Z,98942.47
2023-05-12T02:53:39.359Z,98942.63
2023-05-12T02:56:09.084Z,98942.63
2023-05-12T02:58:37.981Z,98944.25
2023-05-12T03:01:11.285Z,98942.06
2023-05-12T03:03:43.031Z,98938.63
2023-05-12T03:06:12.230Z,98939.84
2023-05-12T03:08:41.272Z,98937.31
2023-05-12T03:11:10.126Z,98946.31
2023-05-12T03:13:38.914Z,98941.25
2023-05-12T03:16:08.999Z,98944.81
2023-05-12T03:18:37.771Z,98950.19
2023-05-12T03:21:09.463Z,98951.00
2023-05-12T03:23:38.570Z,98952.75
2023-05-12T03:26:07.366Z,98953.84
2023-05-12T03:28:37.004Z,98953.81
2023-05-12T03:31:06.286Z,98958.03
2023-05-12T03:33:35.391Z,98961.69
2023-05-12T03:36:04.836Z,98963.44
2023-05-12T03:38:35.294Z,98956.81
2023-05-12T03:41:07.976Z,98959.84
2023-05-12T03:44:15.119Z,98958.94
2023-05-12T03:46:44.094Z,98964.91
2023-05-12T03:49:12.943Z,98956.41
2023-05-12T03:51:42.147Z,98960.41
2023-05-12T03:54:13.459Z,98963.63
2023-05-12T03:56:44.525Z,98962.59
2023-05-12T03:59:14.299Z,98964.31
2023-05-12T04:01:43.089Z,98964.69
2023-05-12T04:04:11.929Z,98971.44
2023-05-12T04:06:41.172Z,98967.59
2023-05-12T04:09:16.365Z,98966.19
2023-05-12T04:11:45.362Z,98968.69
2023-05-12T04:14:14.166Z,98963.91
2023-05-12T04:16:43.247Z,98970.31
2023-05-12T04:19:13.361Z,98967.19
2023-05-12T04:21:42.035Z,98964.81
2023-05-12T04:24:12.029Z,98972.16
2023-05-12T04:26:42.324Z,98962.19
2023-05-12T04:29:11.729Z,98963.53
2023-05-12T04:31:40.943Z,98967.91
2023-05-12T04:34:11.848Z,98960.97
2023-05-12T04:36:41.038Z,98965.84
2023-05-12T04:39:10.257Z,98973.13
2023-05-12T04:41:39.186Z,98973.44
2023-05-12T04:44:10.013Z,98978.31
2023-05-12T04:46:38.885Z,98971.88
2023-05-12T04:49:08.070Z,98973.78
2023-05-12T04:51:42.270Z,98972.47
2023-05-12T04:54:12.083Z,98975.44
2023-05-12T04:56:41.030Z,98966.59
2023-05-12T04:59:16.555Z,98967.72
2023-05-12T05:01:48.276Z,98972.56
2023-05-12T05:04:35.237Z,98975.84
2023-05-12T05:07:13.360Z,98980.97
2023-05-12T05:09:42.131Z,98973.16
2023-05-12T05:12:11.026Z,98981.81
2023-05-12T05:14:41.256Z,98982.34
2023-05-12T05:17:11.386Z,98983.47
2023-05-12T05:19:55.091Z,98979.97
2023-05-12T05:22:27.821Z,98991.56
2023-05-12T05:24:56.749Z,98985.16
2023-05-12T05:27:25.626Z,98987.31
2023-05-12T05:29:55.756Z,98983.63
2023-05-12T05:32:24.677Z,98986.66
2023-05-12T05:34:53.384Z,98991.84
2023-05-12T05:37:22.216Z,98993.25
2023-05-12T05:39:52.672Z,98988.13
2023-05-12T05:42:24.533Z,98987.63
2023-05-12T05:44:54.637Z,98992.53
2023-05-12T05:47:23.783Z,98985.78
2023-05-12T05:49:52.922Z,98993.09
2023-05-12T05:52:22.687Z,99002.59
2023-05-12T05:54:51.608Z,98998.00
2023-05-12T05:57:21.515Z,99008.03
2023-05-12T05:59:51.599Z,99003.44
2023-05-12T06:02:23.318Z,99001.31
2023-05-12T06:04:52.606Z,99006.72
2023-05-12T06:07:22.336Z,99007.03
2023-05-12T06:09:51.103Z,99005.69
2023-05-12T06:12:19.807Z,99006.19
2023-05-12T06:14:48.481Z,99002.72
2023-05-12T06:17:17.252Z,99008.69
2023-05-12T06:19:48.351Z,99008.97
2023-05-12T06:22:17.215Z,99014.94
2023-05-12T06:24:47.493Z,99014.13
2023-05-12T06:27:16.156Z,99014.94
2023-05-12T06:29:44.899Z,99017.66
2023-05-12T06:32:13.658Z,99020.91
2023-05-12T06:34:46.257Z,99016.03
2023-05-12T06:37:15.038Z,99014.97
2023-05-12T06:39:43.738Z,99020.91
2023-05-12T06:42:13.132Z,99012.28
2023-05-12T06:44:43.367Z,99017.13
2023-05-12T06:47:12.396Z,99017.41
2023-05-12T06:49:41.103Z,99020.63
2023-05-12T06:52:11.407Z,99017.41
2023-05-12T06:54:43.376Z,99020.38
2023-05-12T06:57:12.191Z,99017.66
2023-05-12T06:59:40.870Z,99017.09
2023-05-12T07:02:09.723Z,99013.31
2023-05-12T07:04:38.427Z,99012.47
2023-05-12T07:07:07.156Z,99013.25
2023-05-12T07:09:37.255Z,99017.03
2023-05-12T07:12:06.858Z,99014.03
2023-05-12T07:14:35.622Z,99011.56
2023-05-12T07:17:05.067Z,98996.91
2023-05-12T07:19:35.585Z,99005.53
2023-05-12T07:22:04.669Z,99011.00
2023-05-12T07:24:33.485Z,99009.09
2023-05-12T07:27:03.880Z,99008.81
2023-05-12T07:29:32.531Z,99006.06
2023-05-12T07:32:01.447Z,99006.53
2023-05-12T07:34:30.134Z,99010.25
2023-05-12T07:36:59.644Z,99000.75
2023-05-12T07:39:28.323Z,99008.88
2023-05-12T07:41:57.074Z,99013.97
2023-05-12T07:44:27.870Z,99011.31
2023-05-12T07:46:56.595Z,99006.97
2023-05-12T07:49:25.500Z,99007.22
2023-05-12T07:51:54.184Z,99009.63
2023-05-12T07:54:23.010Z,99010.63
2023-05-12T07:56:51.844Z,99013.63
2023-05-12T07:59:20.585Z,99013.53
2023-05-12T08:01:50.835Z,99007.81
2023-05-12T08:04:19.625Z,99018.94
2023-05-12T08:06:48.383Z,99014.31
2023-05-12T08:09:17.096Z,99018.38
2023-05-12T08:11:48.104Z,99003.47
2023-05-12T08:14:18.825Z,99010.38
2023-05-12T08:16:47.952Z,99008.38
2023-05-12T08:19:18.102Z,99009.59
2023-05-12T08:21:46.906Z,99003.16
2023-05-12T08:24:19.413Z,99011.47
2023-05-12T08:26:48.132Z,99001.66
2023-05-12T08:29:16.853Z,99009.22
2023-05-12T08:31:45.668Z,99008.47
2023-05-12T08:34:14.384Z,99010.19
2023-05-12T08:36:44.681Z,99009.31
2023-05-12T08:39:13.956Z,99007.66
2023-05-12T08:41:49.042Z,99014.94
2023-05-12T08:44:20.428Z,99013.97
2023-05-12T08:46:50.191Z,99009.47
2023-05-12T08:49:24.141Z,99006.16
2023-05-12T08:51:58.557Z,99019.06
2023-05-12T08:54:30.108Z,99013.88
2023-05-12T08:59:31.086Z,99010.63
2023-05-12T09:02:03.159Z,99014.72
2023-05-12T09:04:33.257Z,99007.66
2023-05-12T09:07:06.217Z,99012.34
2023-05-12T09:09:37.504Z,99012.09
2023-05-12T09:12:15.029Z,99007.53
2023-05-12T09:14:49.589Z,99011.25
2023-05-12T09:17:18.532Z,99011.75
2023-05-12T09:19:47.278Z,98999.47
2023-05-12T09:22:19.788Z,99007.16
2023-05-12T09:24:48.507Z,99016.66
2023-05-12T09:27:27.087Z,99011.69
2023-05-12T09:29:59.578Z,99010.28
2023-05-12T09:32:33.702Z,99015.34
2023-05-12T09:35:06.492Z,99008.91
2023-05-12T09:37:37.000Z,99013.66
2023-05-12T09:40:08.509Z,99007.50
2023-05-12T09:42:37.749Z,99013.94
2023-05-12T09:45:10.007Z,99014.13
2023-05-12T09:47:41.869Z,99001.03
2023-05-12T09:50:11.394Z,99011.72
2023-05-12T09:52:41.634Z,99010.09
2023-05-12T09:55:13.389Z,99011.03
2023-05-12T09:57:44.666Z,99003.72
2023-05-12T10:00:34.500Z,99003.72
2023-05-12T10:03:13.076Z,99004.03
2023-05-12T10:05:53.282Z,98996.25
2023-05-12T10:08:31.283Z,99007.09
2023-05-12T10:11:03.741Z,99004.81
2023-05-12T10:13:34.327Z,99001.97
2023-05-12T10:16:04.437Z,99012.38
2023-05-12T10:18:36.139Z,99006.72
2023-05-12T10:21:06.606Z,99008.59
2023-05-12T10:23:38.314Z,98999.88
2023-05-12T10:26:08.895Z,99006.28
2023-05-12T10:28:37.579Z,99008.50
2023-05-12T10:31:08.565Z,99001.56
2023-05-12T10:33:37.566Z,99012.50
2023-05-12T10:36:17.283Z,98998.81
2023-05-12T10:38:50.872Z,99001.66
2023-05-12T10:41:31.760Z,99001.34
2023-05-12T10:44:00.813Z,98994.13
2023-05-12T10:46:30.580Z,98994.03
2023-05-12T10:49:04.322Z,98998.75
2023-05-12T10:51:48.481Z,98993.34
2023-05-12T10:54:26.885Z,99002.06
2023-05-12T10:57:04.880Z,98988.59
2023-05-12T10:59:33.948Z,98996.00
2023-05-12T11:02:06.943Z,99001.47
2023-05-12T11:04:48.234Z,98996.84
2023-05-12T11:07:22.539Z,99000.50
2023-05-12T11:09:57.828Z,99001.84
2023-05-12T11:12:33.028Z,98998.97
2023-05-12T11:15:03.934Z,98987.84
2023-05-12T11:17:33.313Z,98988.16
2023-05-12T11:20:02.284Z,98998.19
2023-05-12T11:22:31.115Z,98992.06
2023-05-12T11:25:11.466Z,99001.84
2023-05-12T11:27:44.953Z,99001.31
2023-05-12T11:30:19.818Z,98999.03
2023-05-12T11:32:49.191Z,98998.50
2023-05-12T11:35:20.554Z,99011.44
2023-05-12T11:37:49.406Z,98999.50
2023-05-12T11:40:21.971Z,99001.84
2023-05-12T11:42:54.735Z,98999.69
2023-05-12T11:45:27.018Z,99000.09
2023-05-12T11:48:08.908Z,99011.25
2023-05-12T11:50:40.935Z,99011.59
2023-05-12T11:53:15.035Z,99009.25
2023-05-12T11:55:55.274Z,99015.84
2023-05-12T11:58:27.279Z,99009.97
2023-05-12T12:00:57.229Z,99009.53
2023-05-12T12:03:26.650Z,99012.81
2023-05-12T12:06:03.646Z,99011.75
2023-05-12T12:08:34.106Z,99022.56
2023-05-12T12:11:04.562Z,99019.53
2023-05-12T12:13:33.512Z,99028.13
2023-05-12T12:16:02.305Z,99030.88
2023-05-12T12:18:30.981Z,99019.66
2023-05-12T12:20:59.647Z,99032.75
2023-05-12T12:23:31.630Z,99025.44
2023-05-12T12:26:05.740Z,99030.03
2023-05-12T12:28:36.089Z,99026.38
2023-05-12T12:31:05.868Z,99027.53
2023-05-12T12:33:34.934Z,99019.47
2023-05-12T12:36:03.587Z,99005.41
2023-05-12T12:38:32.705Z,99008.00
2023-05-12T12:41:01.491Z,99014.97
2023-05-12T12:43:31.637Z,99020.31
2023-05-12T12:46:00.865Z,99028.81
2023-05-12T12:48:29.688Z,99027.69
2023-05-12T12:50:58.387Z,99021.09
2023-05-12T12:53:27.619Z,99033.28
2023-05-12T12:55:57.164Z,99031.25
2023-05-12T12:58:33.185Z,99028.84
2023-05-12T13:01:03.769Z,99026.47
2023-05-12T13:03:32.554Z,99024.47
2023-05-12T13:06:04.010Z,99031.38
2023-05-12T13:08:33.618Z,99026.56
2023-05-12T13:11:02.548Z,99030.63
2023-05-12T13:13:32.774Z,99031.84
2023-05-12T13:16:02.353Z,99030.03
2023-05-12T13:18:31.093Z,99032.44
2023-05-12T13:20:59.884Z,99026.56
2023-05-12T13:23:28.800Z,99025.31
2023-05-12T13:25:59.119Z,99024.88
2023-05-12T13:28:28.257Z,99012.72
2023-05-12T13:30:59.873Z,99019.81
2023-05-12T13:33:31.512Z,99021.41
2023-05-12T13:36:00.633Z,99024.69
2023-05-12T13:38:33.977Z,99022.50
2023-05-12T13:41:04.899Z,99018.84
2023-05-12T13:43:34.315Z,99017.00
2023-05-12T13:46:06.535Z,99014.38
2023-05-12T13:48:38.212Z,99020.56
2023-05-12T13:51:07.791Z,99028.41
2023-05-12T13:53:38.571Z,99020.78
2023-05-12T13:56:17.572Z,99024.88
2023-05-12T13:58:46.813Z,99024.78
2023-05-12T14:01:17.563Z,99017.25
2023-05-12T14:03:46.305Z,99014.47
2023-05-12T14:06:15.093Z,99023.22
2023-05-12T14:08:44.012Z,99020.69
2023-05-12T14:11:13.044Z,99027.63
2023-05-12T14:13:41.881Z,99030.97
2023-05-12T14:16:12.827Z,99024.25
2023-05-12T14:18:46.385Z,99028.78
2023-05-12T14:21:15.731Z,99021.13
2023-05-12T14:23:45.841Z,99017.59
2023-05-12T14:26:17.953Z,99022.25
2023-05-12T14:28:47.771Z,99030.09
2023-05-12T14:31:17.634Z,99023.75
2023-05-12T14:33:49.786Z,99025.63
2023-05-12T14:36:19.748Z,99028.06
2023-05-12T14:38:49.539Z,99025.03
2023-05-12T14:41:18.467Z,99027.44
2023-05-12T14:43:49.121Z,99039.16
2023-05-12T14:46:18.627Z,99034.72
2023-05-12T14:48:49.153Z,99043.81
2023-05-12T14:51:18.411Z,99055.75
2023-05-12T14:56:29.229Z,99069.19
2023-05-12T14:58:58.915Z,99068.97
2023-05-12T15:01:28.291Z,99070.84
2023-05-12T15:03:58.733Z,99076.59
2023-05-12T15:06:27.911Z,99081.88
2023-05-12T15:08:57.536Z,99071.91
2023-05-12T15:11:26.997Z,99076.03
2023-05-12T15:13:56.854Z,99076.13
2023-05-12T15:16:26.827Z,99069.22
2023-05-12T15:18:55.604Z,99061.31
2023-05-12T15:21:25.737Z,99066.38
2023-05-12T15:23:55.960Z,99059.72
2023-05-12T15:26:32.702Z,99051.22
2023-05-12T15:29:02.824Z,99042.34
2023-05-12T15:31:32.243Z,99038.50
2023-05-12T15:34:01.619Z,99049.03
2023-05-12T15:36:32.444Z,99045.38
2023-05-12T15:39:03.150Z,99046.50
2023-05-12T15:41:32.963Z,99042.97
2023-05-12T15:44:02.052Z,99041.59
2023-05-12T15:46:31.671Z,99041.78
2023-05-12T15:49:00.646Z,99046.41
2023-05-12T15:51:31.669Z,99038.75
2023-05-12T15:54:00.364Z,99041.38
2023-05-12T15:56:29.928Z,99037.53
2023-05-12T15:58:59.078Z,99042.38
2023-05-12T16:01:29.077Z,99045.59
2023-05-12T16:04:01.051Z,99032.78
2023-05-12T16:06:31.265Z,99042.56
2023-05-12T16:09:00.952Z,99038.25
2023-05-12T16:11:30.717Z,99032.50
2023-05-12T16:14:00.061Z,99029.66
2023-05-12T16:16:29.213Z,99021.41
2023-05-12T16:18:58.026Z,99024.00
2023-05-12T16:21:27.143Z,99029.06
2023-05-12T16:23:57.251Z,99051.94
2023-05-12T16:26:26.854Z,99053.28
2023-05-12T16:28:55.654Z,99075.94
2023-05-12T16:31:24.648Z,99087.22
2023-05-12T16:33:53.345Z,99102.69
2023-05-12T16:36:22.472Z,99087.38
2023-05-12T16:38:51.156Z,99092.78
2023-05-12T16:41:21.346Z,99087.00
2023-05-12T16:43:50.553Z,99056.03
2023-05-12T16:46:19.260Z,99050.63
2023-05-12T16:48:47.873Z,99047.97
2023-05-12T16:51:16.576Z,99048.00
2023-05-12T16:53:46.458Z,99055.94
2023-05-12T16:56:17.851Z,99055.16
2023-05-12T16:58:48.099Z,99070.00
2023-05-12T17:01:20.087Z,99079.28
2023-05-12T17:03:49.587Z,99085.38
2023-05-12T17:06:18.729Z,99091.44
2023-05-12T17:08:47.368Z,99086.56
2023-05-12T17:11:16.407Z,99101.72
2023-05-12T17:13:45.101Z,99100.03
2023-05-12T17:16:16.221Z,99108.72
2023-05-12T17:21:16.624Z,99107.69
2023-05-12T17:23:45.811Z,99104.75
2023-05-12T17:26:15.038Z,99113.34
2023-05-12T17:28:43.871Z,99110.88
2023-05-12T17:31:14.473Z,99122.81
2023-05-12T17:33:43.155Z,99120.69
2023-05-12T17:36:13.361Z,99122.31
2023-05-12T17:38:44.005Z,99114.78
2023-05-12T17:41:13.606Z,99113.69
2023-05-12T17:43:42.410Z,99114.75
2023-05-12T17:46:13.954Z,99117.47
2023-05-12T17:48:44.078Z,99112.88
2023-05-12T17:51:13.525Z,99118.00
2023-05-12T17:53:42.368Z,99114.75
2023-05-12T17:56:11.621Z,99111.53
2023-05-12T17:58:41.670Z,99114.25
2023-05-12T18:01:10.772Z,99116.97
2023-05-12T18:03:40.105Z,99117.78
2023-05-12T18:06:12.941Z,99109.47
2023-05-12T18:08:44.023Z,99117.31
2023-05-12T18:11:19.662Z,99116.22
2023-05-12T18:13:51.549Z,99118.69
2023-05-12T18:16:29.125Z,99113.81
2023-05-12T18:19:00.567Z,99110.06
2023-05-12T18:21:31.220Z,99117.38
2023-05-12T18:24:01.584Z,99113.34
2023-05-12T18:26:31.065Z,99116.56
2023-05-12T18:29:00.785Z,99118.19
2023-05-12T18:31:30.335Z,99115.78
2023-05-12T18:33:59.437Z,99111.72
2023-05-12T18:36:31.174Z,99117.16
2023-05-12T18:39:00.849Z,99123.66
2023-05-12T18:41:30.113Z,99126.34
2023-05-12T18:43:59.381Z,99128.53
2023-05-12T18:46:28.411Z,99133.09
2023-05-12T18:48:57.511Z,99139.84
2023-05-12T18:51:26.189Z,99140.44
2023-05-12T18:53:56.559Z,99144.19
2023-05-12T18:56:25.719Z,99142.00
2023-05-12T18:58:54.419Z,99146.34
2023-05-12T19:01:23.611Z,99142.81
2023-05-12T19:03:52.948Z,99155.53
2023-05-12T19:06:24.270Z,99155.53
2023-05-12T19:08:52.941Z,99153.91
2023-05-12T19:11:23.169Z,99158.19
2023-05-12T19:13:52.456Z,99158.22
2023-05-12T19:16:23.897Z,99160.91
2023-05-12T19:18:52.902Z,99155.75
2023-05-12T19:21:21.655Z,99168.66
2023-05-12T19:23:50.917Z,99166.81
2023-05-12T19:26:19.713Z,99164.56
2023-05-12T19:28:50.140Z,99167.75
2023-05-12T19:31:19.059Z,99176.38
2023-05-12T19:33:49.883Z,99175.78
2023-05-12T19:36:18.696Z,99181.19
2023-05-12T19:38:47.556Z,99192.00
2023-05-12T19:41:17.411Z,99184.59
2023-05-12T19:43:46.259Z,99190.84
2023-05-12T19:46:16.429Z,99193.03
2023-05-12T19:48:45.134Z,99202.91
2023-05-12T19:51:14.105Z,99196.09
2023-05-12T19:53:43.196Z,99204.69
2023-05-12T19:56:12.500Z,99205.78
2023-05-12T19:58:41.255Z,99208.28
2023-05-12T20:01:09.931Z,99210.13
2023-05-12T20:03:40.106Z,99214.41
2023-05-12T20:06:08.928Z,99212.28
2023-05-12T20:08:38.143Z,99222.84
2023-05-12T20:11:07.072Z,99218.66
2023-05-12T20:13:35.809Z,99215.31
2023-05-12T20:16:04.523Z,99217.38
2023-05-12T20:18:33.668Z,99216.22
2023-05-12T20:21:03.877Z,99219.28
2023-05-12T20:23:32.599Z,99225.00
2023-05-12T20:26:01.275Z,99223.97
2023-05-12T20:28:29.943Z,99228.38
2023-05-12T20:30:58.620Z,99228.63
2023-05-12T20:33:27.228Z,99233.44
2023-05-12T20:35:56.062Z,99233.63
2023-05-12T20:38:26.774Z,99236.25
2023-05-12T20:40:55.471Z,99247.16
2023-05-12T20:43:24.098Z,99240.84
2023-05-12T20:45:52.847Z,99241.22
2023-05-12T20:48:22.235Z,99234.66
2023-05-12T20:51:12.669Z,99234.66
2023-05-12T20:53:42.886Z,99226.00
2023-05-12T20:59:00.429Z,99246.16
2023-05-12T21:01:29.145Z,99234.25
2023-05-12T21:03:57.901Z,99235.38
2023-05-12T21:06:26.631Z,99235.03
2023-05-12T21:08:56.675Z,99233.28
2023-05-12T21:11:26.854Z,99248.72
2023-05-12T21:13:55.820Z,99248.13
2023-05-12T21:16:24.551Z,99250.75
2023-05-12T21:18:53.388Z,99248.84
2023-05-12T21:21:22.103Z,99251.63
2023-05-12T21:23:50.823Z,99254.34
2023-05-12T21:26:21.412Z,99247.97
2023-05-12T21:28:50.284Z,99258.06
2023-05-12T21:31:19.143Z,99246.34
2023-05-12T21:33:48.222Z,99246.41
2023-05-12T21:36:17.541Z,99244.72
2023-05-12T21:38:46.228Z,99251.06
2023-05-12T21:41:15.941Z,99253.66
2023-05-12T21:43:46.014Z,99256.41
2023-05-12T21:46:14.748Z,99257.50
2023-05-12T21:48:43.583Z,99255.72
2023-05-12T21:51:12.989Z,99259.31
2023-05-12T21:53:41.949Z,99263.38
2023-05-12T21:56:10.639Z,99260.34
2023-05-12T21:58:39.629Z,99267.94
2023-05-12T22:01:09.746Z,99261.19
2023-05-12T22:03:38.834Z,99264.75
2023-05-12T22:06:08.309Z,99270.41
2023-05-12T22:08:37.264Z,99272.16
2023-05-12T22:11:06.267Z,99275.03
2023-05-12T22:13:35.092Z,99272.28
2023-05-12T22:16:04.119Z,99272.38
2023-05-12T22:18:36.610Z,99273.31
2023-05-12T22:21:05.575Z,99274.03
2023-05-12T22:23:34.303Z,99273.69
2023-05-12T22:26:03.036Z,99271.56
2023-05-12T22:28:31.708Z,99276.19
2023-05-12T22:31:00.738Z,99280.66
2023-05-12T22:33:29.488Z,99287.31
2023-05-12T22:36:01.557Z,99285.69
2023-05-12T22:38:30.288Z,99287.28
2023-05-12T22:40:58.917Z,99289.19
2023-05-12T22:43:27.561Z,99291.34
2023-05-12T22:45:56.877Z,99292.47
2023-05-12T22:48:25.709Z,99284.31
2023-05-12T22:50:55.674Z,99286.53
2023-05-12T22:53:25.684Z,99283.94
2023-05-12T22:55:54.416Z,99277.09
2023-05-12T22:58:23.183Z,99283.13
2023-05-12T23:00:52.078Z,99287.16
2023-05-12T23:03:21.009Z,99294.88
2023-05-12T23:05:49.804Z,99298.13
2023-05-12T23:08:18.414Z,99296.63
2023-05-12T23:10:48.587Z,99307.47
2023-05-12T23:13:17.345Z,99306.22
2023-05-12T23:15:46.054Z,99304.97
2023-05-12T23:18:14.739Z,99302.75
2023-05-12T23:20:43.574Z,99307.44
2023-05-12T23:23:12.292Z,99306.16
2023-05-12T23:25:42.518Z,99296.69
2023-05-12T23:28:12.590Z,99302.97
2023-05-12T23:30:41.283Z,99294.00
2023-05-12T23:33:10.065Z,99302.88
2023-05-12T23:35:38.968Z,99300.88
2023-05-12T23:38:07.668Z,99304.63
2023-05-12T23:40:39.265Z,99304.97
2023-05-12T23:43:08.364Z,99303.78
2023-05-12T23:45:38.532Z,99307.66
2023-05-12T23:48:07.841Z,99312.75
2023-05-12T23:50:36.850Z,99311.22
2023-05-12T23:53:05.584Z,99313.81
2023-05-12T23:55:34.394Z,99303.66
2023-05-12T23:58:03.091Z,99304.72
